Time;durP1;ratioP1;P1;durP2;ratioP2;P2;SDS_P1;SDS_P2;PMS_P1;PMS_P2;Temp;Humidity;BMP_temperature;BMP_pressure;BME280_temperature;BME280_humidity;BME280_pressure;Samples;Min_cycle;Max_cycle;Signal;HPM_P1;HPM_P2
2021/09/17 00:00:43;;;;;;;46.50;35.83;;;15.10;99.90;;;;;;4403217;32;20179;-65
2021/09/17 00:03:12;;;;;;;43.83;34.27;;;15.10;99.90;;;;;;4394562;32;20198;-62
2021/09/17 00:05:39;;;;;;;45.57;36.87;;;15.10;99.90;;;;;;4395379;32;20176;-67
2021/09/17 00:08:06;;;;;;;40.93;31.50;;;15.10;99.90;;;;;;4401311;32;20167;-64
2021/09/17 00:10:34;;;;;;;42.07;32.33;;;15.10;99.90;;;;;;4405936;32;20160;-66
2021/09/17 00:13:01;;;;;;;46.73;33.30;;;15.10;99.90;;;;;;4403091;32;20174;-66
2021/09/17 00:15:28;;;;;;;43.87;32.10;;;15.10;99.90;;;;;;4394214;32;20179;-65
2021/09/17 00:17:56;;;;;;;40.57;31.73;;;15.10;99.90;;;;;;4398128;32;20195;-66
2021/09/17 00:20:25;;;;;;;41.37;32.17;;;15.10;99.90;;;;;;4406747;32;20519;-64
2021/09/17 00:22:52;;;;;;;41.03;31.93;;;15.10;99.90;;;;;;4397926;32;20599;-64
2021/09/17 00:25:19;;;;;;;46.53;33.97;;;15.10;99.90;;;;;;4406011;32;20175;-64
2021/09/17 00:27:48;;;;;;;44.13;34.57;;;15.10;99.90;;;;;;4399594;32;20480;-64
2021/09/17 00:30:15;;;;;;;38.50;28.83;;;15.10;99.90;;;;;;4406770;32;20237;-64
2021/09/17 00:32:42;;;;;;;45.17;33.13;;;15.10;99.90;;;;;;4404968;32;20500;-64
2021/09/17 00:35:11;;;;;;;54.17;39.80;;;15.10;99.90;;;;;;4400853;32;20615;-64
2021/09/17 00:37:39;;;;;;;58.37;41.57;;;15.10;99.90;;;;;;4407801;32;20152;-64
2021/09/17 00:40:09;;;;;;;63.57;44.50;;;15.10;99.90;;;;;;4396434;32;20155;-64
2021/09/17 00:42:38;;;;;;;63.67;44.17;;;15.10;99.90;;;;;;4403103;32;20164;-64
2021/09/17 00:45:08;;;;;;;64.83;44.30;;;15.10;99.90;;;;;;4396225;32;20191;-66
2021/09/17 00:47:37;;;;;;;59.87;43.53;;;15.00;99.90;;;;;;4391415;32;20493;-64
2021/09/17 00:50:06;;;;;;;65.50;44.77;;;15.10;99.90;;;;;;4399803;32;20173;-64
2021/09/17 00:52:33;;;;;;;62.83;44.67;;;15.10;99.90;;;;;;4348062;32;1766563;-64
2021/09/17 00:55:02;;;;;;;66.20;45.77;;;15.10;99.90;;;;;;4402948;32;20513;-64
2021/09/17 00:57:29;;;;;;;67.70;45.20;;;15.10;99.90;;;;;;4404226;32;20186;-65
2021/09/17 01:00:01;;;;;;;66.80;45.50;;;15.10;99.90;;;;;;4394223;32;20562;-66
2021/09/17 01:02:28;;;;;;;63.20;43.90;;;15.10;99.90;;;;;;4396888;32;20621;-67
2021/09/17 01:04:55;;;;;;;65.37;42.00;;;15.10;99.90;;;;;;4400931;32;20202;-64
2021/09/17 01:07:22;;;;;;;62.60;44.17;;;15.10;99.90;;;;;;4395811;32;20179;-64
2021/09/17 01:09:50;;;;;;;66.30;41.93;;;15.10;99.90;;;;;;4404975;32;20178;-64
2021/09/17 01:12:20;;;;;;;62.40;45.43;;;15.10;99.90;;;;;;4403543;32;20163;-64
2021/09/17 01:14:49;;;;;;;65.00;44.63;;;15.10;99.90;;;;;;4395826;32;20163;-64
2021/09/17 01:17:17;;;;;;;66.27;45.53;;;15.10;99.90;;;;;;4405822;32;20152;-66
2021/09/17 01:19:44;;;;;;;68.90;46.07;;;15.10;99.90;;;;;;4398276;32;20194;-66
2021/09/17 01:22:13;;;;;;;66.07;44.07;;;15.10;99.90;;;;;;4397248;32;20197;-64
2021/09/17 01:24:41;;;;;;;65.47;45.43;;;15.10;99.90;;;;;;4406539;32;20470;-64
2021/09/17 01:27:09;;;;;;;67.20;45.03;;;15.20;99.90;;;;;;4396958;32;20173;-64
2021/09/17 01:29:38;;;;;;;64.17;44.90;;;15.20;99.90;;;;;;4398180;32;20518;-64
2021/09/17 01:32:05;;;;;;;62.63;42.33;;;15.20;99.90;;;;;;4403873;32;20159;-64
2021/09/17 01:34:32;;;;;;;64.73;43.33;;;15.20;99.90;;;;;;4400261;32;20163;-64
2021/09/17 01:37:00;;;;;;;68.27;44.87;;;15.20;99.90;;;;;;4403103;32;20286;-67
2021/09/17 01:39:28;;;;;;;67.53;44.67;;;15.20;99.90;;;;;;4401402;32;20179;-64
2021/09/17 01:41:55;;;;;;;62.80;43.90;;;15.30;99.90;;;;;;4399365;32;20215;-64
2021/09/17 01:44:23;;;;;;;65.07;44.07;;;15.30;99.90;;;;;;4396987;32;20176;-66
2021/09/17 01:46:50;;;;;;;62.00;42.87;;;15.30;99.90;;;;;;4400638;32;20194;-64
2021/09/17 01:49:17;;;;;;;64.07;44.00;;;15.30;99.90;;;;;;4395707;32;20178;-64
2021/09/17 01:51:44;;;;;;;65.33;44.67;;;15.30;99.90;;;;;;4402185;32;20186;-64
2021/09/17 01:54:12;;;;;;;66.23;45.93;;;15.30;99.90;;;;;;4391830;32;20598;-64
2021/09/17 01:56:40;;;;;;;63.27;42.90;;;15.30;99.90;;;;;;4392748;32;20267;-64
2021/09/17 01:59:07;;;;;;;62.30;42.07;;;15.30;99.90;;;;;;4397157;32;20610;-65
2021/09/17 02:01:34;;;;;;;58.07;40.70;;;15.30;99.90;;;;;;4403825;32;20167;-64
2021/09/17 02:04:02;;;;;;;58.23;40.10;;;15.30;99.90;;;;;;4400622;32;20159;-65
2021/09/17 02:06:29;;;;;;;63.63;43.20;;;15.30;99.90;;;;;;4402357;32;20186;-63
2021/09/17 02:08:56;;;;;;;62.73;44.10;;;15.30;99.90;;;;;;4400589;32;20210;-65
2021/09/17 02:11:25;;;;;;;60.40;43.27;;;15.30;99.90;;;;;;4396933;32;20860;-64
2021/09/17 02:13:55;;;;;;;57.27;41.80;;;15.30;99.90;;;;;;4405130;32;20677;-66
2021/09/17 02:16:22;;;;;;;60.57;43.93;;;15.30;99.90;;;;;;4402029;32;20589;-65
2021/09/17 02:18:49;;;;;;;61.30;42.50;;;15.30;99.90;;;;;;4399638;32;20182;-65
2021/09/17 02:21:21;;;;;;;58.17;42.57;;;15.30;99.90;;;;;;4404891;32;20182;-64
2021/09/17 02:23:48;;;;;;;58.50;43.87;;;15.30;99.90;;;;;;4400562;32;20181;-67
2021/09/17 02:26:16;;;;;;;60.63;43.37;;;15.30;99.90;;;;;;4390769;32;20198;-65
2021/09/17 02:28:43;;;;;;;61.87;41.80;;;15.30;99.90;;;;;;4397055;32;20156;-66
2021/09/17 02:31:12;;;;;;;63.30;44.47;;;15.30;99.90;;;;;;4399087;32;20178;-64
2021/09/17 02:33:39;;;;;;;61.27;44.10;;;15.30;99.90;;;;;;4398376;32;20623;-67
2021/09/17 02:36:06;;;;;;;59.73;42.90;;;15.30;99.90;;;;;;4394878;32;20160;-67
2021/09/17 02:38:34;;;;;;;62.13;43.33;;;15.30;99.90;;;;;;4402908;32;20179;-63
2021/09/17 02:41:02;;;;;;;62.10;42.90;;;15.30;99.90;;;;;;4402852;32;20194;-62
2021/09/17 02:43:29;;;;;;;61.37;44.47;;;15.30;99.90;;;;;;4406697;32;20167;-64
2021/09/17 02:45:56;;;;;;;60.87;41.00;;;15.30;99.90;;;;;;4390182;32;20167;-63
2021/09/17 02:48:25;;;;;;;67.23;43.53;;;15.30;99.90;;;;;;4398710;32;20197;-64
2021/09/17 02:50:52;;;;;;;61.67;43.50;;;15.30;99.90;;;;;;4396596;32;20180;-64
2021/09/17 02:53:19;;;;;;;62.17;43.47;;;15.30;99.90;;;;;;4405534;32;20178;-65
2021/09/17 02:55:46;;;;;;;62.37;44.33;;;15.30;99.90;;;;;;4403402;32;20174;-67
2021/09/17 02:58:13;;;;;;;65.40;44.47;;;15.40;99.90;;;;;;4400676;32;20163;-64
2021/09/17 03:00:42;;;;;;;65.50;44.87;;;15.40;99.90;;;;;;4395391;32;20190;-64
2021/09/17 03:03:09;;;;;;;61.53;43.27;;;15.40;99.90;;;;;;4405842;32;20169;-63
2021/09/17 03:05:38;;;;;;;64.87;45.93;;;15.40;99.90;;;;;;4403249;32;20270;-64
2021/09/17 03:08:05;;;;;;;66.53;45.07;;;15.40;99.90;;;;;;4406655;32;20197;-63
2021/09/17 03:10:33;;;;;;;75.20;48.07;;;15.40;99.90;;;;;;4406355;32;20171;-63
2021/09/17 03:13:00;;;;;;;74.47;51.60;;;15.40;99.90;;;;;;4408638;32;20164;-63
2021/09/17 03:15:27;;;;;;;76.50;50.60;;;15.40;99.90;;;;;;4409059;32;20614;-64
2021/09/17 03:17:55;;;;;;;70.40;48.37;;;15.50;99.90;;;;;;4403839;32;20170;-67
2021/09/17 03:20:22;;;;;;;69.70;48.00;;;15.50;99.90;;;;;;4404662;32;20182;-63
2021/09/17 03:22:53;;;;;;;73.10;47.80;;;15.40;99.90;;;;;;4393539;32;20483;-64
2021/09/17 03:25:20;;;;;;;85.93;50.90;;;15.50;99.90;;;;;;4407028;32;20182;-63
2021/09/17 03:27:48;;;;;;;82.83;50.67;;;15.40;99.90;;;;;;4406738;32;20187;-63
2021/09/17 03:30:15;;;;;;;75.47;50.57;;;15.40;99.90;;;;;;4401392;32;20182;-64
2021/09/17 03:32:42;;;;;;;72.67;49.30;;;15.40;99.90;;;;;;4402299;32;20189;-63
2021/09/17 03:35:10;;;;;;;79.63;52.73;;;15.40;99.90;;;;;;4397407;32;20179;-66
2021/09/17 03:37:37;;;;;;;79.43;50.63;;;15.40;99.90;;;;;;4392180;32;20156;-63
2021/09/17 03:40:07;;;;;;;81.57;51.70;;;15.40;99.90;;;;;;4401917;32;20192;-65
2021/09/17 03:42:34;;;;;;;71.83;48.87;;;15.40;99.90;;;;;;4407933;32;20178;-64
2021/09/17 03:45:01;;;;;;;77.27;50.50;;;15.40;99.90;;;;;;4403221;32;20245;-63
2021/09/17 03:47:29;;;;;;;80.70;50.90;;;15.40;99.90;;;;;;4404008;32;20171;-66
2021/09/17 03:49:56;;;;;;;74.83;50.70;;;15.50;99.90;;;;;;4401159;32;20292;-64
2021/09/17 03:52:23;;;;;;;83.90;52.37;;;15.40;99.90;;;;;;4401814;32;20163;-63
2021/09/17 03:54:50;;;;;;;79.67;52.00;;;15.40;99.90;;;;;;4405528;32;20179;-65
2021/09/17 03:57:19;;;;;;;75.97;49.20;;;15.50;99.90;;;;;;4402514;32;20618;-63
2021/09/17 03:59:46;;;;;;;76.87;50.47;;;15.40;99.90;;;;;;4407290;32;20220;-64
2021/09/17 04:02:13;;;;;;;75.53;50.90;;;15.40;99.90;;;;;;4401591;32;20152;-64
2021/09/17 04:04:41;;;;;;;85.83;55.13;;;15.40;99.90;;;;;;4405003;32;20171;-65
2021/09/17 04:07:08;;;;;;;79.73;51.07;;;15.40;99.90;;;;;;4393496;32;20181;-64
2021/09/17 04:09:36;;;;;;;84.13;52.73;;;15.30;99.90;;;;;;4394195;32;20198;-65
2021/09/17 04:12:04;;;;;;;86.47;55.40;;;15.30;99.90;;;;;;4404630;32;20227;-64
2021/09/17 04:14:32;;;;;;;77.50;50.93;;;15.30;99.90;;;;;;4401315;32;20157;-63
2021/09/17 04:16:59;;;;;;;82.73;53.43;;;15.30;99.90;;;;;;4397578;32;20175;-64
2021/09/17 04:19:27;;;;;;;88.23;54.67;;;15.30;99.90;;;;;;4400428;32;20233;-64
2021/09/17 04:21:54;;;;;;;81.73;51.77;;;15.30;99.90;;;;;;4395691;32;20159;-63
2021/09/17 04:24:21;;;;;;;88.10;54.60;;;15.30;99.90;;;;;;4407729;32;20166;-64
2021/09/17 04:26:49;;;;;;;80.63;52.23;;;15.30;99.90;;;;;;4403889;32;20175;-65
2021/09/17 04:29:16;;;;;;;82.77;55.10;;;15.30;99.90;;;;;;4398039;32;20261;-64
2021/09/17 04:31:44;;;;;;;82.63;51.50;;;15.30;99.90;;;;;;4394491;32;20535;-66
2021/09/17 04:34:12;;;;;;;89.17;54.93;;;15.30;99.90;;;;;;4405317;32;20180;-66
2021/09/17 04:36:39;;;;;;;84.93;53.63;;;15.30;99.90;;;;;;4404092;32;20182;-64
2021/09/17 04:39:06;;;;;;;83.17;53.37;;;15.30;99.90;;;;;;4392153;32;20534;-64
2021/09/17 04:41:33;;;;;;;88.73;54.43;;;15.30;99.90;;;;;;4400295;32;20159;-65
2021/09/17 04:44:00;;;;;;;87.00;55.37;;;15.30;99.90;;;;;;4403617;32;20172;-64
2021/09/17 04:46:27;;;;;;;85.77;53.27;;;15.30;99.90;;;;;;4394895;32;20472;-64
2021/09/17 04:48:56;;;;;;;81.33;53.03;;;15.30;99.90;;;;;;4404406;32;20174;-64
2021/09/17 04:51:23;;;;;;;79.93;52.10;;;15.30;99.90;;;;;;4401489;32;20614;-65
2021/09/17 04:53:50;;;;;;;83.53;55.43;;;15.30;99.90;;;;;;4396269;32;20254;-64
2021/09/17 04:56:18;;;;;;;87.00;55.40;;;15.30;99.90;;;;;;4406033;32;20159;-64
2021/09/17 04:58:45;;;;;;;79.03;50.20;;;15.30;99.90;;;;;;4406105;32;20209;-64
2021/09/17 05:01:13;;;;;;;82.20;54.23;;;15.30;99.90;;;;;;4395983;32;20178;-64
2021/09/17 05:03:40;;;;;;;80.30;52.13;;;15.40;99.90;;;;;;4399443;32;20193;-64
2021/09/17 05:06:09;;;;;;;79.23;52.20;;;15.30;99.90;;;;;;4400678;32;20171;-64
2021/09/17 05:08:37;;;;;;;82.50;54.20;;;15.40;99.90;;;;;;4400982;32;20534;-64
2021/09/17 05:11:04;;;;;;;81.20;54.00;;;15.40;99.90;;;;;;4398014;32;20704;-63
2021/09/17 05:13:31;;;;;;;75.67;52.67;;;15.40;99.90;;;;;;4401086;32;20183;-64
2021/09/17 05:16:02;;;;;;;80.87;51.70;;;15.40;99.90;;;;;;4379718;32;20235;-67
2021/09/17 05:18:31;;;;;;;80.67;53.90;;;15.40;99.90;;;;;;4399131;32;20151;-67
2021/09/17 05:20:58;;;;;;;78.00;49.73;;;15.40;99.90;;;;;;4396389;32;20182;-64
2021/09/17 05:23:27;;;;;;;75.03;50.97;;;15.50;99.90;;;;;;4402388;32;20191;-64
2021/09/17 05:25:54;;;;;;;78.57;50.77;;;15.50;99.90;;;;;;4395215;32;20243;-64
2021/09/17 05:28:21;;;;;;;77.03;49.97;;;15.50;99.90;;;;;;4401221;32;20156;-64
2021/09/17 05:30:48;;;;;;;80.00;51.77;;;15.50;99.90;;;;;;4395524;32;20568;-64
2021/09/17 05:33:15;;;;;;;70.63;49.00;;;15.50;99.90;;;;;;4397686;32;20164;-64
2021/09/17 05:35:42;;;;;;;74.10;51.37;;;15.50;99.90;;;;;;4395107;32;20187;-64
2021/09/17 05:38:13;;;;;;;73.23;48.57;;;15.50;99.90;;;;;;4400022;32;20167;-64
2021/09/17 05:40:42;;;;;;;72.93;48.57;;;15.50;99.90;;;;;;4399363;32;20190;-64
2021/09/17 05:43:09;;;;;;;72.30;48.47;;;15.50;99.90;;;;;;4395308;32;20233;-64
2021/09/17 05:45:39;;;;;;;75.20;49.90;;;15.50;99.90;;;;;;4397282;32;20457;-64
2021/09/17 05:48:08;;;;;;;77.57;49.93;;;15.50;99.90;;;;;;4397231;32;20608;-64
2021/09/17 05:50:35;;;;;;;75.20;50.00;;;15.50;99.90;;;;;;4395016;32;20186;-64
2021/09/17 05:53:02;;;;;;;70.60;48.73;;;15.60;99.90;;;;;;4396955;32;20566;-64
2021/09/17 05:55:29;;;;;;;74.03;48.30;;;15.60;99.90;;;;;;4400013;32;20160;-64
2021/09/17 05:57:59;;;;;;;79.07;50.17;;;15.70;99.90;;;;;;4398411;32;20484;-64
2021/09/17 06:00:27;;;;;;;68.97;47.93;;;15.70;99.90;;;;;;4400408;32;20163;-64
2021/09/17 06:02:54;;;;;;;68.83;46.53;;;15.70;99.90;;;;;;4399748;32;20187;-64
2021/09/17 06:05:22;;;;;;;64.00;45.77;;;15.80;99.90;;;;;;4398905;32;20183;-64
2021/09/17 06:07:49;;;;;;;77.07;51.07;;;15.80;99.90;;;;;;4395690;32;20160;-64
2021/09/17 06:10:16;;;;;;;67.43;47.10;;;15.80;99.90;;;;;;4399825;32;20647;-64
2021/09/17 06:12:44;;;;;;;72.23;47.50;;;15.80;99.90;;;;;;4398130;32;20481;-64
2021/09/17 06:15:16;;;;;;;64.30;47.20;;;15.80;99.90;;;;;;4396266;32;20492;-65
2021/09/17 06:17:43;;;;;;;65.20;45.43;;;15.90;99.90;;;;;;4398003;32;20606;-64
2021/09/17 06:20:12;;;;;;;66.70;45.43;;;15.90;99.90;;;;;;4398434;32;20580;-64
2021/09/17 06:22:41;;;;;;;69.20;45.80;;;15.90;99.90;;;;;;4398420;32;20182;-64
2021/09/17 06:25:10;;;;;;;66.03;44.43;;;15.90;99.90;;;;;;4397098;32;20160;-64
2021/09/17 06:27:37;;;;;;;66.33;45.90;;;16.00;99.90;;;;;;4398173;32;20186;-63
2021/09/17 06:30:05;;;;;;;57.80;42.80;;;16.00;99.90;;;;;;4406324;32;20174;-63
2021/09/17 06:32:34;;;;;;;61.93;43.90;;;16.10;99.90;;;;;;4406750;32;20178;-64
2021/09/17 06:35:01;;;;;;;62.03;42.27;;;16.10;99.90;;;;;;4408810;32;20185;-64
2021/09/17 06:37:28;;;;;;;62.90;45.53;;;16.10;99.90;;;;;;4407779;32;20499;-64
2021/09/17 06:39:55;;;;;;;62.27;45.50;;;16.20;99.90;;;;;;4407906;32;20159;-64
2021/09/17 06:42:23;;;;;;;61.77;44.77;;;16.30;99.90;;;;;;4408646;32;20545;-64
2021/09/17 06:44:50;;;;;;;64.23;45.40;;;16.30;99.90;;;;;;4408918;32;20563;-64
2021/09/17 06:47:17;;;;;;;61.33;43.47;;;16.30;99.90;;;;;;4402397;32;20179;-64
2021/09/17 06:49:46;;;;;;;62.00;44.37;;;16.30;99.90;;;;;;4393025;32;20148;-64
2021/09/17 06:52:13;;;;;;;57.80;41.60;;;16.30;99.90;;;;;;4392794;32;20168;-64
2021/09/17 06:54:41;;;;;;;55.77;42.73;;;16.40;99.90;;;;;;4393702;32;20156;-63
2021/09/17 06:57:08;;;;;;;58.13;42.40;;;16.50;99.90;;;;;;4393238;32;20621;-63
2021/09/17 06:59:42;;;;;;;57.57;45.27;;;16.60;99.90;;;;;;4399657;32;20181;-63
2021/09/17 07:02:10;;;;;;;57.20;43.40;;;16.70;99.90;;;;;;4408483;32;20189;-63
2021/09/17 07:04:37;;;;;;;55.33;42.03;;;16.70;99.90;;;;;;4408120;32;20202;-63
2021/09/17 07:07:06;;;;;;;56.10;42.67;;;16.80;99.90;;;;;;4407899;32;20567;-63
2021/09/17 07:09:33;;;;;;;54.10;41.13;;;16.90;99.90;;;;;;4408059;32;20491;-63
2021/09/17 07:12:00;;;;;;;55.73;42.10;;;17.00;99.90;;;;;;4407705;32;20156;-63
2021/09/17 07:14:28;;;;;;;51.23;39.83;;;17.10;99.90;;;;;;4407795;32;20152;-64
2021/09/17 07:16:55;;;;;;;55.47;42.47;;;17.20;99.90;;;;;;4408251;32;20602;-63
2021/09/17 07:19:22;;;;;;;55.03;41.03;;;17.40;99.90;;;;;;4409065;32;20152;-63
2021/09/17 07:21:49;;;;;;;52.63;40.37;;;17.50;99.90;;;;;;4407666;32;20152;-63
2021/09/17 07:24:18;;;;;;;52.13;42.43;;;17.70;99.90;;;;;;4407980;32;20187;-64
2021/09/17 07:26:45;;;;;;;47.67;40.27;;;17.80;99.90;;;;;;4407592;32;20189;-63
2021/09/17 07:29:12;;;;;;;47.90;39.03;;;17.90;99.90;;;;;;4408739;32;20242;-64
2021/09/17 07:31:39;;;;;;;43.87;36.47;;;18.00;99.90;;;;;;4406703;32;20152;-64
2021/09/17 07:34:07;;;;;;;43.70;35.50;;;18.10;99.90;;;;;;4403408;32;20448;-64
2021/09/17 07:36:34;;;;;;;43.53;36.30;;;18.20;99.90;;;;;;4407680;32;20151;-64
2021/09/17 07:39:01;;;;;;;41.43;35.30;;;18.30;99.90;;;;;;4402621;32;20177;-62
2021/09/17 07:41:30;;;;;;;42.70;35.17;;;18.40;99.90;;;;;;4392872;32;20576;-64
2021/09/17 07:43:57;;;;;;;37.93;33.70;;;18.40;99.90;;;;;;4393536;32;20496;-63
2021/09/17 07:46:24;;;;;;;40.63;35.30;;;18.50;99.90;;;;;;4392298;32;20594;-63
2021/09/17 07:48:51;;;;;;;38.37;34.27;;;18.70;99.90;;;;;;4393232;32;20186;-63
2021/09/17 07:51:18;;;;;;;42.07;36.90;;;19.00;99.90;;;;;;4393891;32;20175;-65
2021/09/17 07:53:45;;;;;;;44.23;39.70;;;19.30;99.90;;;;;;4407443;32;20515;-64
2021/09/17 07:56:13;;;;;;;37.53;33.83;;;19.70;99.90;;;;;;4408337;32;20576;-64
2021/09/17 07:58:41;;;;;;;37.60;33.93;;;19.90;99.90;;;;;;4406787;32;20151;-64
2021/09/17 08:01:08;;;;;;;40.90;36.97;;;20.10;99.90;;;;;;4407891;32;20183;-64
2021/09/17 08:03:36;;;;;;;41.63;37.70;;;20.40;99.90;;;;;;4407044;32;20175;-64
2021/09/17 08:06:03;;;;;;;40.67;36.67;;;20.40;99.90;;;;;;4408045;32;20572;-64
2021/09/17 08:08:30;;;;;;;40.27;36.37;;;20.20;99.90;;;;;;4407517;32;20152;-64
2021/09/17 08:10:58;;;;;;;36.97;33.40;;;20.00;99.90;;;;;;4406988;32;20182;-64
2021/09/17 08:13:25;;;;;;;41.67;37.83;;;19.70;99.90;;;;;;4408522;32;20151;-64
2021/09/17 08:15:53;;;;;;;40.57;36.60;;;19.60;99.90;;;;;;4406865;32;20170;-64
2021/09/17 08:18:21;;;;;;;39.50;35.80;;;19.50;99.90;;;;;;4407870;32;20155;-64
2021/09/17 08:20:50;;;;;;;35.87;32.37;;;19.50;99.90;;;;;;4408096;32;20152;-66
2021/09/17 08:23:19;;;;;;;39.73;36.27;;;19.60;99.90;;;;;;4408536;32;20219;-64
2021/09/17 08:25:46;;;;;;;40.30;36.60;;;19.50;99.90;;;;;;4408654;32;20204;-64
2021/09/17 08:28:14;;;;;;;43.43;39.23;;;19.50;99.90;;;;;;4407044;32;20163;-64
2021/09/17 08:30:41;;;;;;;38.67;35.20;;;19.60;99.90;;;;;;4405451;32;20312;-64
2021/09/17 08:33:10;;;;;;;35.00;32.13;;;19.70;99.90;;;;;;4407141;32;20502;-64
2021/09/17 08:35:37;;;;;;;39.77;36.27;;;19.70;99.90;;;;;;4406984;32;20170;-64
2021/09/17 08:38:04;;;;;;;40.70;37.27;;;19.70;99.90;;;;;;4406623;32;20166;-64
2021/09/17 08:40:32;;;;;;;43.17;39.13;;;19.70;99.90;;;;;;4408365;32;20484;-64
2021/09/17 08:43:00;;;;;;;43.67;40.03;;;19.70;99.90;;;;;;4407159;32;20635;-64
2021/09/17 08:45:28;;;;;;;41.03;37.30;;;19.50;99.90;;;;;;4408275;32;20168;-64
2021/09/17 08:47:55;;;;;;;39.23;35.93;;;19.60;99.90;;;;;;4406534;32;20160;-64
2021/09/17 08:50:24;;;;;;;43.23;39.63;;;19.60;99.90;;;;;;4406345;32;20484;-64
2021/09/17 08:52:52;;;;;;;41.30;37.60;;;19.70;99.90;;;;;;4405994;32;20182;-64
2021/09/17 08:55:19;;;;;;;45.67;41.63;;;19.80;99.90;;;;;;4406500;32;20209;-64
2021/09/17 08:57:47;;;;;;;48.30;43.83;;;20.00;99.90;;;;;;4406923;32;20143;-64
2021/09/17 09:00:40;;;;;;;48.93;44.30;;;20.20;99.90;;;;;;4406275;32;20213;-65
2021/09/17 09:03:10;;;;;;;40.37;36.83;;;20.30;99.90;;;;;;4406239;32;20143;-65
2021/09/17 09:05:41;;;;;;;45.53;41.83;;;20.60;99.90;;;;;;4406822;32;20155;-65
2021/09/17 09:08:08;;;;;;;50.40;46.10;;;20.90;99.90;;;;;;4406217;32;20147;-65
2021/09/17 09:10:36;;;;;;;49.23;44.70;;;21.00;99.90;;;;;;4406434;32;20170;-65
2021/09/17 09:13:06;;;;;;;47.83;43.43;;;21.10;99.90;;;;;;4406032;32;20156;-64
2021/09/17 09:15:35;;;;;;;52.50;48.07;;;21.10;99.90;;;;;;4406239;32;20567;-65
2021/09/17 09:18:07;;;;;;;49.10;44.90;;;21.00;99.90;;;;;;4405006;32;20433;-67
2021/09/17 09:20:35;;;;;;;53.57;49.03;;;21.00;99.90;;;;;;4403898;32;20163;-65
2021/09/17 09:23:10;;;;;;;49.70;45.30;;;20.90;99.90;;;;;;4406875;32;20619;-65
2021/09/17 09:25:50;;;;;;;52.73;48.03;;;20.90;99.90;;;;;;4403586;32;20151;-65
2021/09/17 09:28:21;;;;;;;53.23;49.17;;;21.00;99.90;;;;;;4405726;32;20163;-65
2021/09/17 09:30:48;;;;;;;52.33;48.03;;;21.00;99.90;;;;;;4403586;32;20175;-64
2021/09/17 09:33:32;;;;;;;50.07;45.40;;;21.10;99.90;;;;;;4404984;32;20159;-65
2021/09/17 09:36:05;;;;;;;52.20;47.73;;;21.20;99.90;;;;;;4404863;32;20159;-68
2021/09/17 09:38:40;;;;;;;54.90;50.50;;;21.30;99.90;;;;;;4404422;32;20163;-66
2021/09/17 09:41:10;;;;;;;52.93;48.53;;;21.40;99.90;;;;;;4404746;32;20156;-67
2021/09/17 09:43:39;;;;;;;54.20;49.30;;;21.40;99.90;;;;;;4404764;32;20179;-66
2021/09/17 09:46:27;;;;;;;52.53;48.47;;;21.40;99.90;;;;;;4405155;32;20465;-66
2021/09/17 09:49:25;;;;;;;51.10;46.93;;;21.50;99.90;;;;;;4406552;32;20580;-69
2021/09/17 09:51:55;;;;;;;49.40;45.17;;;21.60;99.90;;;;;;4405393;32;20168;-65
2021/09/17 09:54:26;;;;;;;51.87;47.77;;;21.70;99.90;;;;;;4405581;32;20160;-65
2021/09/17 09:56:55;;;;;;;49.97;45.93;;;21.90;99.90;;;;;;4406188;32;20166;-69
2021/09/17 09:59:26;;;;;;;50.73;47.13;;;22.20;99.90;;;;;;4405131;32;20168;-68
2021/09/17 10:01:55;;;;;;;50.57;46.93;;;22.50;99.90;;;;;;4404293;32;20216;-65
2021/09/17 10:04:25;;;;;;;54.07;50.13;;;22.90;99.90;;;;;;4404654;32;20538;-65
2021/09/17 10:07:04;;;;;;;54.03;49.83;;;23.20;99.90;;;;;;4403844;32;20626;-65
2021/09/17 10:09:37;;;;;;;52.73;48.30;;;23.40;99.90;;;;;;4403027;32;20222;-66
2021/09/17 10:12:10;;;;;;;54.97;50.67;;;23.50;99.90;;;;;;4397333;32;20457;-64
2021/09/17 10:14:44;;;;;;;52.83;48.40;;;23.40;99.90;;;;;;4396773;32;20215;-67
2021/09/17 10:17:15;;;;;;;51.37;47.22;;;23.10;99.90;;;;;;4395560;32;20178;-69
2021/09/17 10:20:01;;;;;;;53.13;48.93;;;22.70;99.90;;;;;;4394492;32;20680;-65
2021/09/17 10:22:33;;;;;;;62.20;57.33;;;22.40;99.90;;;;;;4394060;32;20156;-65
2021/09/17 10:25:24;;;;;;;60.87;56.10;;;22.30;99.90;;;;;;4395278;32;20171;-65
2021/09/17 10:28:04;;;;;;;62.73;57.83;;;22.40;99.90;;;;;;4394663;32;20151;-65
2021/09/17 10:30:35;;;;;;;63.77;58.77;;;22.50;99.90;;;;;;4402398;32;20501;-65
2021/09/17 10:33:03;;;;;;;60.30;55.00;;;22.80;99.90;;;;;;4404904;32;20195;-65
2021/09/17 10:35:43;;;;;;;56.28;51.85;;;22.90;99.90;;;;;;4407017;32;20171;-69
2021/09/17 10:38:20;;;;;;;47.92;44.28;;;22.90;99.90;;;;;;4400774;32;20160;-65
2021/09/17 10:40:52;;;;;;;53.37;49.17;;;22.90;99.90;;;;;;4401345;32;20181;-68
2021/09/17 10:43:31;;;;;;;52.60;48.40;;;22.90;99.90;;;;;;4405311;32;20168;-64
2021/09/17 10:46:00;;;;;;;49.40;45.70;;;22.70;99.90;;;;;;4404892;32;20171;-65
2021/09/17 10:48:52;;;;;;;50.53;46.67;;;22.70;99.90;;;;;;4403331;32;20159;-65
2021/09/17 10:51:33;;;;;;;52.40;48.33;;;22.70;99.90;;;;;;4405526;32;20181;-65
2021/09/17 10:54:02;;;;;;;52.50;48.20;;;22.70;99.90;;;;;;4413712;32;20174;-67
2021/09/17 10:57:02;;;;;;;52.67;48.35;;;22.50;99.90;;;;;;4412946;32;20234;-64
2021/09/17 10:59:46;;;;;;;54.77;50.60;;;22.40;99.90;;;;;;4403990;32;20167;-67
2021/09/17 11:02:14;;;;;;;52.50;48.20;;;22.20;99.90;;;;;;4402394;32;20586;-65
2021/09/17 11:04:48;;;;;;;63.00;58.53;;;22.40;99.90;;;;;;4405005;32;20159;-67
2021/09/17 11:07:35;;;;;;;53.40;49.33;;;22.50;99.90;;;;;;4402552;32;20221;-66
2021/09/17 11:10:21;;;;;;;50.67;46.90;;;22.90;99.90;;;;;;4395930;32;20151;-65
2021/09/17 11:12:49;;;;;;;51.47;47.57;;;23.10;99.90;;;;;;4395429;32;20498;-66
2021/09/17 11:15:18;;;;;;;50.07;46.17;;;23.40;99.90;;;;;;4403220;32;20178;-68
2021/09/17 11:17:48;;;;;;;54.20;50.13;;;23.60;99.90;;;;;;4404835;32;20184;-68
2021/09/17 11:20:19;;;;;;;49.03;44.58;;;23.70;99.90;;;;;;4407932;32;20156;-66
2021/09/17 11:22:59;;;;;;;51.17;47.03;;;23.40;99.90;;;;;;4404905;32;20174;-66
2021/09/17 11:25:37;;;;;;;55.17;50.30;;;23.40;99.90;;;;;;4406650;32;20171;-69
2021/09/17 11:28:08;;;;;;;56.47;51.53;;;23.50;99.90;;;;;;4402242;32;20499;-66
2021/09/17 11:30:37;;;;;;;57.47;52.37;;;23.50;99.90;;;;;;4396696;32;20160;-66
2021/09/17 11:33:18;;;;;;;51.33;46.97;;;23.50;99.90;;;;;;4404680;32;20483;-68
2021/09/17 11:35:49;;;;;;;59.47;54.70;;;23.50;99.90;;;;;;4391625;32;20184;-67
2021/09/17 11:38:24;;;;;;;61.05;56.03;;;23.40;99.90;;;;;;4404050;32;20503;-69
2021/09/17 11:40:59;;;;;;;67.18;61.92;;;23.20;99.90;;;;;;4395661;32;20163;-66
2021/09/17 11:43:28;;;;;;;65.17;60.30;;;22.70;99.90;;;;;;4400754;32;20461;-69
2021/09/17 11:45:56;;;;;;;65.28;59.92;;;22.90;99.90;;;;;;4403949;32;20164;-65
2021/09/17 11:48:25;;;;;;;66.20;61.05;;;22.80;99.90;;;;;;4401164;32;20362;-68
2021/09/17 11:50:54;;;;;;;58.97;54.53;;;22.80;99.90;;;;;;4404369;32;20193;-68
2021/09/17 11:53:21;;;;;;;60.58;55.72;;;22.90;99.90;;;;;;4397109;32;20178;-66
2021/09/17 11:55:49;;;;;;;65.03;59.93;;;22.90;99.90;;;;;;4405149;32;20164;-69
2021/09/17 11:58:16;;;;;;;61.77;56.57;;;23.10;99.90;;;;;;4406034;32;20168;-66
2021/09/17 12:00:46;;;;;;;71.70;66.03;;;23.20;99.90;;;;;;4404919;32;20159;-66
2021/09/17 12:03:13;;;;;;;65.77;60.77;;;23.30;99.90;;;;;;4405743;32;20155;-66
2021/09/17 12:05:42;;;;;;;63.78;58.83;;;23.40;99.90;;;;;;4403188;32;20213;-71
2021/09/17 12:08:10;;;;;;;50.33;46.45;;;23.50;99.90;;;;;;4401390;32;20177;-67
2021/09/17 12:10:39;;;;;;;47.40;43.60;;;23.40;99.90;;;;;;4405393;32;20163;-67
2021/09/17 12:13:08;;;;;;;50.50;46.42;;;23.40;99.90;;;;;;4398580;32;20219;-67
2021/09/17 12:15:38;;;;;;;49.38;45.90;;;23.40;99.90;;;;;;4399805;32;20148;-68
2021/09/17 12:18:08;;;;;;;52.10;48.22;;;23.40;99.90;;;;;;4404924;32;20232;-67
2021/09/17 12:20:40;;;;;;;53.17;49.30;;;23.40;99.90;;;;;;4401057;32;20235;-67
2021/09/17 12:23:08;;;;;;;50.22;46.20;;;23.30;99.90;;;;;;4401229;32;20194;-70
2021/09/17 12:25:35;;;;;;;50.08;46.53;;;23.00;99.90;;;;;;4367440;32;20576;-67
2021/09/17 12:28:05;;;;;;;52.83;48.72;;;22.80;99.90;;;;;;4399023;32;20193;-67
2021/09/17 12:30:34;;;;;;;60.28;55.47;;;22.70;99.90;;;;;;4396675;32;20679;-67
2021/09/17 12:33:09;;;;;;;58.78;54.00;;;22.40;99.90;;;;;;4401823;32;20163;-67
2021/09/17 12:35:38;;;;;;;65.20;60.37;;;22.20;99.90;;;;;;4401834;32;20537;-67